createdAt,value
2023-05-18T00:00:34.133Z,3.03
2023-05-18T00:03:03.383Z,3.33
2023-05-18T00:05:34.145Z,2.83
2023-05-18T00:08:03.869Z,2.85
2023-05-18T00:10:32.240Z,3.33
2023-05-18T00:13:00.023Z,2.95
2023-05-18T00:15:27.846Z,3.30
2023-05-18T00:17:57.613Z,3.10
2023-05-18T00:20:26.532Z,3.40
2023-05-18T00:22:54.278Z,2.80
2023-05-18T00:25:23.894Z,3.53
2023-05-18T00:27:52.265Z,2.90
2023-05-18T00:30:20.221Z,3.33
2023-05-18T00:32:48.277Z,3.30
2023-05-18T00:35:17.007Z,3.45
2023-05-18T00:37:44.724Z,3.22
2023-05-18T00:40:13.519Z,4.95
2023-05-18T00:42:42.736Z,3.17
2023-05-18T00:45:11.541Z,3.78
2023-05-18T00:47:39.313Z,3.20
2023-05-18T00:50:08.398Z,2.92
2023-05-18T00:52:36.184Z,3.03
2023-05-18T00:55:04.647Z,3.35
2023-05-18T00:57:33.574Z,2.92
2023-05-18T01:00:04.804Z,2.83
2023-05-18T01:02:32.894Z,3.00
2023-05-18T01:05:03.088Z,2.83
2023-05-18T01:07:33.428Z,3.33
2023-05-18T01:10:01.537Z,2.80
2023-05-18T01:12:34.128Z,3.08
2023-05-18T01:15:06.431Z,3.17
2023-05-18T01:17:40.441Z,2.95
2023-05-18T01:20:21.828Z,3.05
2023-05-18T01:23:23.119Z,3.25
2023-05-18T01:26:15.273Z,3.53
2023-05-18T01:28:46.213Z,3.08
2023-05-18T01:31:16.116Z,3.33
2023-05-18T01:33:44.368Z,3.28
2023-05-18T01:36:12.430Z,3.17
2023-05-18T01:38:43.727Z,3.08
2023-05-18T01:41:19.506Z,3.15
2023-05-18T01:43:51.408Z,3.17
2023-05-18T01:46:23.415Z,3.20
2023-05-18T01:48:57.990Z,2.78
2023-05-18T01:51:28.391Z,3.33
2023-05-18T01:54:00.847Z,2.53
2023-05-18T01:56:31.279Z,2.88
2023-05-18T01:58:59.338Z,3.00
2023-05-18T02:01:27.583Z,3.53
2023-05-18T02:03:55.590Z,2.90
2023-05-18T02:06:23.521Z,2.72
2023-05-18T02:08:51.896Z,2.70
2023-05-18T02:11:19.651Z,2.80
2023-05-18T02:13:49.310Z,2.83
2023-05-18T02:16:17.302Z,3.22
2023-05-18T02:18:45.966Z,2.63
2023-05-18T02:21:15.340Z,3.10
2023-05-18T02:23:43.096Z,2.72
2023-05-18T02:26:10.834Z,2.83
2023-05-18T02:28:39.958Z,3.80
2023-05-18T02:31:11.668Z,3.10
2023-05-18T02:33:40.799Z,2.95
2023-05-18T02:36:09.884Z,3.53
2023-05-18T02:38:39.449Z,3.22
2023-05-18T02:41:08.060Z,2.92
2023-05-18T02:43:37.254Z,3.10
2023-05-18T02:46:05.871Z,2.65
2023-05-18T02:48:36.540Z,2.90
2023-05-18T02:51:04.389Z,3.30
2023-05-18T02:53:32.758Z,2.80
2023-05-18T02:56:06.928Z,2.92
2023-05-18T02:58:48.458Z,3.50
2023-05-18T03:01:27.099Z,3.33
2023-05-18T03:03:57.735Z,3.45
2023-05-18T03:06:26.795Z,2.83
2023-05-18T03:08:56.120Z,3.28
2023-05-18T03:11:30.496Z,3.03
2023-05-18T03:13:58.840Z,3.15
2023-05-18T03:16:28.347Z,3.58
2023-05-18T03:18:59.091Z,3.30
2023-05-18T03:21:34.055Z,3.22
2023-05-18T03:24:02.821Z,3.05
2023-05-18T03:26:31.873Z,3.13
2023-05-18T03:29:01.090Z,3.25
2023-05-18T03:31:29.037Z,3.42
2023-05-18T03:34:00.240Z,2.80
2023-05-18T03:36:28.888Z,3.33
2023-05-18T03:38:56.635Z,2.97
2023-05-18T03:41:24.614Z,3.33
2023-05-18T03:43:55.781Z,3.10
2023-05-18T03:46:24.351Z,3.53
2023-05-18T03:48:53.962Z,2.97
2023-05-18T03:51:29.133Z,2.72
2023-05-18T03:53:57.194Z,2.78
2023-05-18T03:56:26.094Z,3.30
2023-05-18T03:58:54.158Z,3.15
2023-05-18T04:01:23.769Z,2.72
2023-05-18T04:03:56.342Z,2.60
2023-05-18T04:06:27.854Z,3.05
2023-05-18T04:08:56.492Z,3.00
2023-05-18T04:11:26.688Z,2.90
2023-05-18T04:13:54.431Z,2.75
2023-05-18T04:16:22.582Z,3.00
2023-05-18T04:18:50.549Z,3.13
2023-05-18T04:21:19.388Z,2.90
2023-05-18T04:23:48.618Z,2.72
2023-05-18T04:26:19.883Z,3.05
2023-05-18T04:28:48.512Z,2.97
2023-05-18T04:31:17.813Z,2.70
2023-05-18T04:33:46.609Z,2.90
2023-05-18T04:36:14.801Z,2.30
2023-05-18T04:38:42.822Z,2.67
2023-05-18T04:41:12.127Z,3.03
2023-05-18T04:43:41.663Z,3.30
2023-05-18T04:46:09.771Z,2.75
2023-05-18T04:48:37.621Z,2.20
2023-05-18T04:51:06.079Z,2.65
2023-05-18T04:53:34.268Z,2.50
2023-05-18T04:56:02.732Z,2.22
2023-05-18T04:58:31.858Z,3.08
2023-05-18T05:00:59.921Z,2.33
2023-05-18T05:03:28.818Z,2.25
2023-05-18T05:05:57.138Z,2.10
2023-05-18T05:08:25.752Z,2.10
2023-05-18T05:10:53.562Z,2.47
2023-05-18T05:13:22.514Z,2.10
2023-05-18T05:15:51.667Z,2.00
2023-05-18T05:18:20.431Z,2.17
2023-05-18T05:20:49.078Z,2.13
2023-05-18T05:23:17.722Z,2.55
2023-05-18T05:25:46.612Z,2.10
2023-05-18T05:28:14.913Z,1.98
2023-05-18T05:30:43.431Z,2.33
2023-05-18T05:33:13.046Z,2.10
2023-05-18T05:35:41.019Z,2.30
2023-05-18T05:38:09.439Z,1.98
2023-05-18T05:40:37.355Z,2.65
2023-05-18T05:43:05.852Z,2.50
2023-05-18T05:45:34.525Z,1.85
2023-05-18T05:48:06.169Z,2.00
2023-05-18T05:50:36.862Z,1.95
2023-05-18T05:53:06.192Z,2.30
2023-05-18T05:55:40.956Z,2.10
2023-05-18T05:58:12.596Z,1.95
2023-05-18T06:00:43.115Z,2.05
2023-05-18T06:03:10.965Z,2.13
2023-05-18T06:05:43.788Z,2.33
2023-05-18T06:08:13.867Z,2.13
2023-05-18T06:10:42.577Z,2.33
2023-05-18T06:13:10.946Z,2.17
2023-05-18T06:15:46.886Z,2.10
2023-05-18T06:18:15.206Z,3.45
2023-05-18T06:20:44.348Z,2.72
2023-05-18T06:23:12.087Z,2.53
2023-05-18T06:25:49.833Z,2.15
2023-05-18T06:28:36.670Z,3.10
2023-05-18T06:31:15.885Z,2.42
2023-05-18T06:33:50.259Z,2.00
2023-05-18T06:36:20.108Z,2.65
2023-05-18T06:38:47.940Z,2.13
2023-05-18T06:41:15.769Z,2.10
2023-05-18T06:43:43.854Z,2.42
2023-05-18T06:46:23.613Z,2.22
2023-05-18T06:48:58.148Z,2.17
2023-05-18T06:51:27.500Z,2.40
2023-05-18T06:53:57.490Z,1.80
2023-05-18T06:56:26.770Z,2.00
2023-05-18T06:58:56.276Z,2.13
2023-05-18T07:01:25.703Z,1.85
2023-05-18T07:03:54.706Z,2.00
2023-05-18T07:06:22.493Z,2.25
2023-05-18T07:08:51.670Z,1.45
2023-05-18T07:11:19.382Z,1.88
2023-05-18T07:13:47.396Z,2.00
2023-05-18T07:16:15.379Z,2.00
2023-05-18T07:18:44.037Z,2.17
2023-05-18T07:21:12.244Z,2.33
2023-05-18T07:23:39.951Z,2.00
2023-05-18T07:26:10.868Z,2.15
2023-05-18T07:28:39.085Z,2.20
2023-05-18T07:31:09.115Z,1.95
2023-05-18T07:33:38.531Z,2.78
2023-05-18T07:36:08.679Z,1.98
2023-05-18T07:38:36.398Z,1.92
2023-05-18T07:41:04.422Z,2.00
2023-05-18T07:43:33.662Z,1.83
2023-05-18T07:46:01.482Z,2.10
2023-05-18T07:48:29.861Z,2.30
2023-05-18T07:50:57.598Z,2.00
2023-05-18T07:53:25.319Z,2.03
2023-05-18T07:55:53.166Z,2.20
2023-05-18T07:58:21.490Z,2.20
2023-05-18T08:00:50.830Z,1.88
2023-05-18T08:03:19.444Z,2.42
2023-05-18T08:05:47.227Z,2.20
2023-05-18T08:08:15.593Z,2.72
2023-05-18T08:10:43.448Z,2.50
2023-05-18T08:13:11.361Z,2.17
2023-05-18T08:15:40.641Z,2.00
2023-05-18T08:18:09.901Z,2.10
2023-05-18T08:20:37.711Z,2.17
2023-05-18T08:23:05.919Z,2.30
2023-05-18T08:25:33.972Z,2.42
2023-05-18T08:28:01.858Z,2.22
2023-05-18T08:30:29.798Z,2.28
2023-05-18T08:32:58.007Z,2.00
2023-05-18T08:35:27.946Z,2.45
2023-05-18T08:37:56.392Z,1.80
2023-05-18T08:40:24.774Z,2.10
2023-05-18T08:43:07.472Z,1.90
2023-05-18T08:45:38.483Z,2.10
2023-05-18T08:48:07.112Z,1.90
2023-05-18T08:50:37.015Z,2.22
2023-05-18T08:53:07.236Z,2.40
2023-05-18T08:55:37.189Z,2.70
2023-05-18T08:58:07.331Z,2.28
2023-05-18T09:00:36.367Z,2.33
2023-05-18T09:03:05.222Z,2.30
2023-05-18T09:05:33.592Z,2.55
2023-05-18T09:08:03.971Z,2.15
2023-05-18T09:10:33.697Z,2.67
2023-05-18T09:13:03.158Z,2.65
2023-05-18T09:15:31.614Z,2.20
2023-05-18T09:18:00.577Z,2.28
2023-05-18T09:20:29.089Z,2.35
2023-05-18T09:22:57.404Z,2.72
2023-05-18T09:25:29.059Z,2.70
2023-05-18T09:27:56.868Z,2.60
2023-05-18T09:30:25.878Z,2.72
2023-05-18T09:32:56.642Z,2.20
2023-05-18T09:35:25.828Z,2.42
2023-05-18T09:37:54.569Z,2.50
2023-05-18T09:40:30.657Z,2.40
2023-05-18T09:42:58.952Z,2.40
2023-05-18T09:45:28.826Z,2.70
2023-05-18T09:47:57.246Z,2.58
2023-05-18T09:50:25.642Z,2.28
2023-05-18T09:52:53.385Z,2.60
2023-05-18T09:55:21.395Z,2.63
2023-05-18T09:57:51.481Z,2.50
2023-05-18T10:00:22.878Z,2.38
2023-05-18T10:02:53.245Z,2.38
2023-05-18T10:05:22.015Z,2.58
2023-05-18T10:07:49.967Z,2.45
2023-05-18T10:10:19.689Z,3.15
2023-05-18T10:12:47.759Z,2.78
2023-05-18T10:15:17.640Z,2.60
2023-05-18T10:17:46.186Z,2.85
2023-05-18T10:20:16.805Z,2.60
2023-05-18T10:22:46.348Z,2.58
2023-05-18T10:25:17.403Z,2.60
2023-05-18T10:27:45.941Z,2.80
2023-05-18T10:30:15.990Z,3.15
2023-05-18T10:32:45.581Z,3.47
2023-05-18T10:35:13.573Z,2.97
2023-05-18T10:37:47.228Z,2.97
2023-05-18T10:40:16.118Z,2.95
2023-05-18T10:42:44.387Z,3.00
2023-05-18T10:45:12.336Z,2.75
2023-05-18T10:47:42.389Z,2.95
2023-05-18T10:50:12.048Z,2.80
2023-05-18T10:52:39.774Z,3.17
2023-05-18T10:55:09.668Z,3.10
2023-05-18T10:57:41.019Z,3.08
2023-05-18T11:00:10.953Z,2.95
2023-05-18T11:02:40.100Z,3.50
2023-05-18T11:05:08.978Z,3.60
2023-05-18T11:07:38.618Z,3.60
2023-05-18T11:10:10.755Z,3.28
2023-05-18T11:12:39.799Z,3.38
2023-05-18T11:15:08.751Z,3.28
2023-05-18T11:17:36.592Z,3.67
2023-05-18T11:20:15.286Z,2.95
2023-05-18T11:22:48.506Z,3.30
2023-05-18T11:25:40.911Z,3.28
2023-05-18T11:28:10.499Z,3.65
2023-05-18T11:30:51.880Z,3.00
2023-05-18T11:33:24.806Z,3.00
2023-05-18T11:35:57.130Z,2.92
2023-05-18T11:38:47.101Z,2.75
2023-05-18T11:41:29.145Z,3.08
2023-05-18T11:44:09.933Z,3.13
2023-05-18T11:46:37.800Z,3.33
2023-05-18T11:49:06.031Z,3.30
2023-05-18T11:51:34.721Z,2.92
2023-05-18T11:54:04.763Z,3.28
2023-05-18T11:56:34.337Z,3.40
2023-05-18T11:59:12.388Z,3.63
2023-05-18T12:01:42.519Z,3.00
2023-05-18T12:04:10.988Z,3.55
2023-05-18T12:06:39.512Z,3.30
2023-05-18T12:09:10.391Z,3.20
2023-05-18T12:11:39.130Z,3.40
2023-05-18T12:14:07.171Z,3.22
2023-05-18T12:16:37.710Z,3.65
2023-05-18T12:19:05.855Z,3.40
2023-05-18T12:21:36.515Z,3.65
2023-05-18T12:24:04.721Z,3.88
2023-05-18T12:26:33.765Z,3.50
2023-05-18T12:29:02.409Z,3.50
2023-05-18T12:31:30.959Z,3.28
2023-05-18T12:33:59.430Z,3.25
2023-05-18T12:36:27.396Z,3.88
2023-05-18T12:38:55.342Z,3.67
2023-05-18T12:41:24.738Z,3.60
2023-05-18T12:43:54.932Z,3.40
2023-05-18T12:46:24.513Z,3.35
2023-05-18T12:48:58.251Z,3.45
2023-05-18T12:51:30.877Z,3.13
2023-05-18T12:53:59.459Z,3.25
2023-05-18T12:56:27.178Z,3.60
2023-05-18T12:59:03.062Z,3.60
2023-05-18T13:01:31.008Z,3.50
2023-05-18T13:03:59.409Z,3.60
2023-05-18T13:06:28.251Z,3.45
2023-05-18T13:08:56.617Z,2.88
2023-05-18T13:11:27.709Z,3.30
2023-05-18T13:14:01.568Z,3.30
2023-05-18T13:16:30.529Z,3.60
2023-05-18T13:19:00.075Z,3.70
2023-05-18T13:21:28.113Z,3.50
2023-05-18T13:23:55.832Z,3.08
2023-05-18T13:26:24.276Z,3.30
2023-05-18T13:28:54.831Z,2.83
2023-05-18T13:31:24.871Z,3.65
2023-05-18T13:33:53.620Z,3.10
2023-05-18T13:36:21.951Z,2.70
2023-05-18T13:38:50.215Z,3.20
2023-05-18T13:41:18.086Z,3.10
2023-05-18T13:43:45.754Z,2.85
2023-05-18T13:46:14.199Z,3.13
2023-05-18T13:48:43.492Z,2.92
2023-05-18T13:51:11.136Z,3.20
2023-05-18T13:53:40.798Z,3.33
2023-05-18T13:56:08.940Z,3.10
2023-05-18T13:58:37.028Z,2.80
2023-05-18T14:01:08.219Z,3.42
2023-05-18T14:03:36.711Z,3.40
2023-05-18T14:06:06.491Z,3.58
2023-05-18T14:08:34.362Z,3.28
2023-05-18T14:11:02.185Z,3.20
2023-05-18T14:13:29.997Z,3.00
2023-05-18T14:15:57.757Z,3.53
2023-05-18T14:18:25.500Z,3.10
2023-05-18T14:20:53.342Z,2.90
2023-05-18T14:23:24.350Z,3.33
2023-05-18T14:25:52.227Z,3.78
2023-05-18T14:28:20.018Z,3.78
2023-05-18T14:30:48.141Z,3.20
2023-05-18T14:33:16.058Z,3.15
2023-05-18T14:35:43.985Z,3.17
2023-05-18T14:38:11.915Z,3.10
2023-05-18T14:40:40.942Z,2.90
2023-05-18T14:43:11.503Z,5.30
2023-05-18T14:45:39.375Z,3.80
2023-05-18T14:48:09.662Z,3.40
2023-05-18T14:50:38.806Z,3.10
2023-05-18T14:53:06.845Z,2.90
2023-05-18T14:55:34.474Z,3.50
2023-05-18T14:58:06.117Z,2.90
2023-05-18T15:00:35.092Z,3.20
2023-05-18T15:03:07.190Z,3.00
2023-05-18T15:05:44.284Z,3.40
2023-05-18T15:08:12.369Z,2.70
2023-05-18T15:10:40.530Z,3.00
2023-05-18T15:13:09.588Z,2.97
2023-05-18T15:15:37.314Z,3.00
2023-05-18T15:18:05.788Z,3.38
2023-05-18T15:20:33.838Z,3.22
2023-05-18T15:23:02.006Z,3.40
2023-05-18T15:25:30.407Z,2.70
2023-05-18T15:27:58.240Z,2.67
2023-05-18T15:30:29.765Z,2.90
2023-05-18T15:32:58.104Z,2.97
2023-05-18T15:35:26.058Z,3.40
2023-05-18T15:37:53.766Z,3.47
2023-05-18T15:40:21.413Z,3.08
2023-05-18T15:42:49.038Z,3.03
2023-05-18T15:45:17.029Z,2.83
2023-05-18T15:47:46.124Z,2.60
2023-05-18T15:50:14.375Z,2.90
2023-05-18T15:52:42.425Z,2.80
2023-05-18T15:55:10.786Z,3.15
2023-05-18T15:57:38.564Z,3.00
2023-05-18T16:00:07.819Z,3.00
2023-05-18T16:02:40.168Z,3.20
2023-05-18T16:05:09.856Z,2.67
2023-05-18T16:07:40.978Z,2.90
2023-05-18T16:10:09.507Z,2.45
2023-05-18T16:12:37.144Z,3.13
2023-05-18T16:15:05.556Z,3.25
2023-05-18T16:17:33.244Z,2.80
2023-05-18T16:20:03.485Z,2.90
2023-05-18T16:22:33.333Z,2.92
2023-05-18T16:25:01.001Z,2.97
2023-05-18T16:27:29.086Z,2.40
2023-05-18T16:29:56.881Z,2.78
2023-05-18T16:32:27.598Z,3.13
2023-05-18T16:34:56.082Z,2.75
2023-05-18T16:37:23.683Z,2.83
2023-05-18T16:39:53.023Z,2.60
2023-05-18T16:42:22.262Z,2.50
2023-05-18T16:44:50.492Z,3.33
2023-05-18T16:47:18.659Z,2.60
2023-05-18T16:49:46.435Z,2.88
2023-05-18T16:52:15.806Z,3.00
2023-05-18T16:54:43.633Z,3.13
2023-05-18T16:57:13.494Z,3.20
2023-05-18T16:59:41.774Z,3.00
2023-05-18T17:02:13.038Z,2.90
2023-05-18T17:04:42.855Z,2.92
2023-05-18T17:07:11.418Z,3.40
2023-05-18T17:09:42.163Z,3.08
2023-05-18T17:12:10.728Z,2.80
2023-05-18T17:14:40.357Z,2.80
2023-05-18T17:17:08.446Z,2.78
2023-05-18T17:19:36.746Z,2.90
2023-05-18T17:22:06.610Z,3.17
2023-05-18T17:24:34.392Z,2.90
2023-05-18T17:27:02.984Z,2.67
2023-05-18T17:29:31.013Z,2.90
2023-05-18T17:32:00.292Z,2.92
2023-05-18T17:34:30.408Z,3.55
2023-05-18T17:36:59.323Z,3.15
2023-05-18T17:39:27.117Z,2.97
2023-05-18T17:41:55.315Z,2.92
2023-05-18T17:44:23.012Z,2.70
2023-05-18T17:46:50.906Z,2.95
2023-05-18T17:49:20.143Z,3.20
2023-05-18T17:51:47.846Z,3.30
2023-05-18T17:54:15.505Z,2.70
2023-05-18T17:56:44.031Z,3.20
2023-05-18T17:59:12.473Z,2.53
2023-05-18T18:01:40.577Z,2.80
2023-05-18T18:04:08.521Z,2.65
2023-05-18T18:06:38.978Z,2.63
2023-05-18T18:09:06.863Z,2.90
2023-05-18T18:11:36.054Z,2.70
2023-05-18T18:14:03.808Z,2.63
2023-05-18T18:16:32.128Z,2.28
2023-05-18T18:19:00.002Z,2.80
2023-05-18T18:21:27.832Z,2.40
2023-05-18T18:23:56.912Z,2.67
2023-05-18T18:26:26.180Z,2.42
2023-05-18T18:28:53.991Z,2.40
2023-05-18T18:31:21.743Z,3.05
2023-05-18T18:33:50.502Z,2.60
2023-05-18T18:36:18.242Z,2.40
2023-05-18T18:38:46.710Z,2.33
2023-05-18T18:41:17.442Z,2.58
2023-05-18T18:43:45.703Z,2.60
2023-05-18T18:46:13.531Z,2.40
2023-05-18T18:48:41.718Z,2.40
2023-05-18T18:51:09.947Z,2.45
2023-05-18T18:53:37.702Z,2.75
2023-05-18T18:56:06.406Z,2.60
2023-05-18T18:58:35.875Z,2.58
2023-05-18T19:01:04.659Z,2.60
2023-05-18T19:03:32.899Z,2.72
2023-05-18T19:06:01.477Z,2.65
2023-05-18T19:08:30.083Z,2.63
2023-05-18T19:10:58.124Z,2.90
2023-05-18T19:13:26.553Z,2.40
2023-05-18T19:15:55.924Z,2.72
2023-05-18T19:18:24.215Z,2.67
2023-05-18T19:20:52.006Z,2.55
2023-05-18T19:23:19.772Z,3.10
2023-05-18T19:25:47.887Z,2.88
2023-05-18T19:28:16.129Z,2.80
2023-05-18T19:30:43.989Z,2.92
2023-05-18T19:33:13.114Z,3.67
2023-05-18T19:35:41.068Z,2.85
2023-05-18T19:38:09.131Z,3.10
2023-05-18T19:40:36.893Z,3.00
2023-05-18T19:43:04.684Z,2.95
2023-05-18T19:45:33.620Z,3.33
2023-05-18T19:48:01.800Z,3.10
2023-05-18T19:50:31.601Z,2.75
2023-05-18T19:52:59.524Z,2.80
2023-05-18T19:55:27.361Z,3.17
2023-05-18T19:57:56.120Z,2.70
2023-05-18T20:00:25.507Z,2.72
2023-05-18T20:02:53.432Z,3.20
2023-05-18T20:05:24.250Z,2.95
2023-05-18T20:07:53.385Z,3.20
2023-05-18T20:10:21.768Z,3.05
2023-05-18T20:12:49.596Z,2.83
2023-05-18T20:15:18.779Z,3.05
2023-05-18T20:17:46.612Z,3.33
2023-05-18T20:20:14.705Z,3.63
2023-05-18T20:22:42.655Z,3.30
2023-05-18T20:25:12.808Z,3.38
2023-05-18T20:27:40.828Z,3.53
2023-05-18T20:30:10.028Z,3.72
2023-05-18T20:32:38.126Z,3.85
2023-05-18T20:35:06.433Z,3.50
2023-05-18T20:37:35.001Z,3.13
2023-05-18T20:40:08.924Z,3.30
2023-05-18T20:42:40.278Z,3.35
2023-05-18T20:45:08.868Z,3.50
2023-05-18T20:47:36.698Z,3.38
2023-05-18T20:50:04.985Z,3.25
2023-05-18T20:52:32.714Z,3.97
2023-05-18T20:55:00.550Z,3.85
2023-05-18T20:57:30.010Z,3.80
2023-05-18T20:59:59.226Z,4.10
2023-05-18T21:02:27.020Z,4.60
2023-05-18T21:04:57.671Z,4.68
2023-05-18T21:07:26.327Z,4.85
2023-05-18T21:09:54.681Z,4.47
2023-05-18T21:12:22.776Z,4.65
2023-05-18T21:14:51.261Z,4.65
2023-05-18T21:17:20.972Z,4.05
2023-05-18T21:19:49.620Z,4.00
2023-05-18T21:22:17.383Z,4.47
2023-05-18T21:24:45.112Z,4.53
2023-05-18T21:27:13.271Z,4.03
2023-05-18T21:29:41.094Z,4.35
2023-05-18T21:32:09.795Z,4.95
2023-05-18T21:34:41.129Z,4.68
2023-05-18T21:37:10.902Z,4.32
2023-05-18T21:39:40.103Z,4.25
2023-05-18T21:42:07.934Z,4.38
2023-05-18T21:44:36.309Z,4.35
2023-05-18T21:47:04.036Z,4.30
2023-05-18T21:49:32.383Z,4.35
2023-05-18T21:52:02.096Z,4.35
2023-05-18T21:54:32.723Z,4.38
2023-05-18T21:57:00.765Z,4.68
2023-05-18T21:59:29.268Z,4.40
2023-05-18T22:01:57.088Z,4.10
2023-05-18T22:04:25.661Z,4.28
2023-05-18T22:06:54.350Z,4.45
2023-05-18T22:09:23.427Z,4.03
2023-05-18T22:11:51.625Z,4.80
2023-05-18T22:14:19.610Z,4.78
2023-05-18T22:16:47.905Z,4.38
2023-05-18T22:19:15.845Z,4.85
2023-05-18T22:21:43.952Z,3.95
2023-05-18T22:24:11.736Z,4.43
2023-05-18T22:26:42.745Z,4.47
2023-05-18T22:29:10.604Z,4.75
2023-05-18T22:31:38.973Z,4.93
2023-05-18T22:34:07.183Z,5.90
2023-05-18T22:36:35.155Z,4.60
2023-05-18T22:39:03.527Z,4.85
2023-05-18T22:41:32.215Z,5.20
2023-05-18T22:44:01.847Z,5.07
2023-05-18T22:46:30.387Z,5.28
2023-05-18T22:48:59.148Z,5.80
2023-05-18T22:51:28.134Z,5.00
2023-05-18T22:53:56.884Z,5.05
2023-05-18T22:56:24.904Z,5.10
2023-05-18T22:58:52.710Z,5.20
2023-05-18T23:01:21.917Z,5.05
2023-05-18T23:03:50.140Z,5.28
2023-05-18T23:06:17.925Z,5.00
2023-05-18T23:08:46.194Z,5.57
2023-05-18T23:11:18.461Z,6.28
2023-05-18T23:13:46.353Z,6.05
2023-05-18T23:16:14.093Z,5.97
2023-05-18T23:18:45.466Z,5.72
2023-05-18T23:21:14.430Z,5.85
2023-05-18T23:23:42.547Z,5.80
2023-05-18T23:26:10.786Z,5.85
2023-05-18T23:28:39.773Z,6.68
2023-05-18T23:31:07.562Z,5.43
2023-05-18T23:33:35.885Z,5.88
2023-05-18T23:36:06.407Z,6.40
2023-05-18T23:38:37.937Z,5.63
2023-05-18T23:41:06.508Z,6.85
2023-05-18T23:43:34.950Z,5.85
2023-05-18T23:46:04.843Z,7.15
2023-05-18T23:48:34.397Z,5.80
2023-05-18T23:51:03.427Z,6.28
2023-05-18T23:53:33.578Z,5.78
2023-05-18T23:56:02.684Z,5.60
2023-05-18T23:58:32.946Z,6.13
